sensor_id;sensor_type;location;lat;lon;timestamp;P1;durP1;ratioP1;P2;durP2;ratioP2
52724;SDS011;38621;52.830;6.914;2023-04-25T00:01:11;11.23;;;2.55;;
52724;SDS011;38621;52.830;6.914;2023-04-25T00:03:39;9.40;;;3.10;;
52724;SDS011;38621;52.830;6.914;2023-04-25T00:06:05;8.65;;;2.95;;
52724;SDS011;38621;52.830;6.914;2023-04-25T00:08:31;10.23;;;2.85;;
52724;SDS011;38621;52.830;6.914;2023-04-25T00:10:58;9.13;;;2.70;;
52724;SDS011;38621;52.830;6.914;2023-04-25T00:13:24;8.68;;;2.65;;
52724;SDS011;38621;52.830;6.914;2023-04-25T00:15:50;7.35;;;2.35;;
52724;SDS011;38621;52.830;6.914;2023-04-25T00:18:18;10.60;;;3.25;;
52724;SDS011;38621;52.830;6.914;2023-04-25T00:20:45;14.25;;;3.15;;
52724;SDS011;38621;52.830;6.914;2023-04-25T00:23:15;12.32;;;2.70;;
52724;SDS011;38621;52.830;6.914;2023-04-25T00:25:43;7.13;;;3.10;;
52724;SDS011;38621;52.830;6.914;2023-04-25T00:28:10;9.10;;;2.53;;
52724;SDS011;38621;52.830;6.914;2023-04-25T00:30:36;11.63;;;2.92;;
52724;SDS011;38621;52.830;6.914;2023-04-25T00:33:02;8.23;;;2.05;;
52724;SDS011;38621;52.830;6.914;2023-04-25T00:35:28;11.30;;;2.90;;
52724;SDS011;38621;52.830;6.914;2023-04-25T00:37:53;11.52;;;3.30;;
52724;SDS011;38621;52.830;6.914;2023-04-25T00:40:20;7.90;;;2.65;;
52724;SDS011;38621;52.830;6.914;2023-04-25T00:42:45;8.70;;;2.72;;
52724;SDS011;38621;52.830;6.914;2023-04-25T00:45:13;8.90;;;2.70;;
52724;SDS011;38621;52.830;6.914;2023-04-25T00:47:40;16.52;;;2.80;;
52724;SDS011;38621;52.830;6.914;2023-04-25T00:50:08;5.63;;;2.30;;
52724;SDS011;38621;52.830;6.914;2023-04-25T00:52:35;12.52;;;3.03;;
52724;SDS011;38621;52.830;6.914;2023-04-25T00:55:04;8.13;;;2.70;;
52724;SDS011;38621;52.830;6.914;2023-04-25T00:57:30;10.85;;;3.33;;
52724;SDS011;38621;52.830;6.914;2023-04-25T00:59:55;11.55;;;3.13;;
52724;SDS011;38621;52.830;6.914;2023-04-25T01:02:21;5.97;;;2.60;;
52724;SDS011;38621;52.830;6.914;2023-04-25T01:04:47;10.15;;;2.90;;
52724;SDS011;38621;52.830;6.914;2023-04-25T01:07:13;9.80;;;2.92;;
52724;SDS011;38621;52.830;6.914;2023-04-25T01:09:40;12.65;;;3.33;;
52724;SDS011;38621;52.830;6.914;2023-04-25T01:12:06;5.57;;;2.67;;
52724;SDS011;38621;52.830;6.914;2023-04-25T01:14:32;5.13;;;2.35;;
52724;SDS011;38621;52.830;6.914;2023-04-25T01:16:58;12.38;;;3.00;;
52724;SDS011;38621;52.830;6.914;2023-04-25T01:19:24;8.10;;;2.78;;
52724;SDS011;38621;52.830;6.914;2023-04-25T01:21:51;7.68;;;2.50;;
52724;SDS011;38621;52.830;6.914;2023-04-25T01:24:17;7.72;;;2.40;;
52724;SDS011;38621;52.830;6.914;2023-04-25T01:26:42;7.97;;;3.10;;
52724;SDS011;38621;52.830;6.914;2023-04-25T01:29:15;7.97;;;3.05;;
52724;SDS011;38621;52.830;6.914;2023-04-25T01:31:42;6.28;;;2.72;;
52724;SDS011;38621;52.830;6.914;2023-04-25T01:34:09;13.48;;;3.60;;
52724;SDS011;38621;52.830;6.914;2023-04-25T01:36:35;8.38;;;2.92;;
52724;SDS011;38621;52.830;6.914;2023-04-25T01:39:01;6.70;;;2.47;;
52724;SDS011;38621;52.830;6.914;2023-04-25T01:41:27;7.80;;;2.78;;
52724;SDS011;38621;52.830;6.914;2023-04-25T01:43:53;10.60;;;2.75;;
52724;SDS011;38621;52.830;6.914;2023-04-25T01:46:19;7.00;;;3.08;;
52724;SDS011;38621;52.830;6.914;2023-04-25T01:48:45;11.32;;;2.60;;
52724;SDS011;38621;52.830;6.914;2023-04-25T01:51:11;8.05;;;2.75;;
52724;SDS011;38621;52.830;6.914;2023-04-25T01:53:37;13.20;;;3.05;;
52724;SDS011;38621;52.830;6.914;2023-04-25T01:56:03;8.07;;;2.95;;
52724;SDS011;38621;52.830;6.914;2023-04-25T01:58:29;15.63;;;3.28;;
52724;SDS011;38621;52.830;6.914;2023-04-25T02:00:55;7.65;;;2.70;;
52724;SDS011;38621;52.830;6.914;2023-04-25T02:03:20;10.50;;;2.75;;
52724;SDS011;38621;52.830;6.914;2023-04-25T02:05:46;6.13;;;2.20;;
52724;SDS011;38621;52.830;6.914;2023-04-25T02:08:12;7.03;;;2.97;;
52724;SDS011;38621;52.830;6.914;2023-04-25T02:10:38;8.57;;;2.95;;
52724;SDS011;38621;52.830;6.914;2023-04-25T02:13:03;8.90;;;2.70;;
52724;SDS011;38621;52.830;6.914;2023-04-25T02:15:30;13.63;;;3.15;;
52724;SDS011;38621;52.830;6.914;2023-04-25T02:17:56;9.48;;;2.50;;
52724;SDS011;38621;52.830;6.914;2023-04-25T02:20:23;10.85;;;3.00;;
52724;SDS011;38621;52.830;6.914;2023-04-25T02:22:49;6.78;;;1.92;;
52724;SDS011;38621;52.830;6.914;2023-04-25T02:25:16;9.40;;;2.60;;
52724;SDS011;38621;52.830;6.914;2023-04-25T02:27:43;9.85;;;2.83;;
52724;SDS011;38621;52.830;6.914;2023-04-25T02:30:08;9.02;;;2.42;;
52724;SDS011;38621;52.830;6.914;2023-04-25T02:32:34;7.35;;;2.40;;
52724;SDS011;38621;52.830;6.914;2023-04-25T02:35:00;9.00;;;2.78;;
52724;SDS011;38621;52.830;6.914;2023-04-25T02:37:38;6.05;;;2.47;;
52724;SDS011;38621;52.830;6.914;2023-04-25T02:40:05;8.18;;;2.42;;
52724;SDS011;38621;52.830;6.914;2023-04-25T02:42:31;7.90;;;2.40;;
52724;SDS011;38621;52.830;6.914;2023-04-25T02:44:57;8.77;;;2.70;;
52724;SDS011;38621;52.830;6.914;2023-04-25T02:47:23;9.88;;;3.30;;
52724;SDS011;38621;52.830;6.914;2023-04-25T02:49:49;7.00;;;2.75;;
52724;SDS011;38621;52.830;6.914;2023-04-25T02:52:15;7.00;;;2.50;;
52724;SDS011;38621;52.830;6.914;2023-04-25T02:54:41;8.95;;;3.03;;
52724;SDS011;38621;52.830;6.914;2023-04-25T02:57:06;8.57;;;2.58;;
52724;SDS011;38621;52.830;6.914;2023-04-25T02:59:32;5.80;;;2.17;;
52724;SDS011;38621;52.830;6.914;2023-04-25T03:01:58;18.02;;;4.03;;
52724;SDS011;38621;52.830;6.914;2023-04-25T03:04:24;9.82;;;3.15;;
52724;SDS011;38621;52.830;6.914;2023-04-25T03:06:50;8.68;;;2.38;;
52724;SDS011;38621;52.830;6.914;2023-04-25T03:09:16;7.10;;;3.10;;
52724;SDS011;38621;52.830;6.914;2023-04-25T03:11:43;7.60;;;2.80;;
52724;SDS011;38621;52.830;6.914;2023-04-25T03:14:09;8.18;;;2.55;;
52724;SDS011;38621;52.830;6.914;2023-04-25T03:16:35;5.90;;;2.05;;
52724;SDS011;38621;52.830;6.914;2023-04-25T03:19:01;8.52;;;2.55;;
52724;SDS011;38621;52.830;6.914;2023-04-25T03:21:28;9.70;;;2.50;;
52724;SDS011;38621;52.830;6.914;2023-04-25T03:23:54;5.38;;;2.20;;
52724;SDS011;38621;52.830;6.914;2023-04-25T03:26:20;8.10;;;2.72;;
52724;SDS011;38621;52.830;6.914;2023-04-25T03:28:45;8.32;;;2.58;;
52724;SDS011;38621;52.830;6.914;2023-04-25T03:31:11;7.85;;;2.22;;
52724;SDS011;38621;52.830;6.914;2023-04-25T03:33:37;9.60;;;2.70;;
52724;SDS011;38621;52.830;6.914;2023-04-25T03:36:02;14.57;;;2.53;;
52724;SDS011;38621;52.830;6.914;2023-04-25T03:38:28;7.47;;;2.50;;
52724;SDS011;38621;52.830;6.914;2023-04-25T03:40:54;7.82;;;2.17;;
52724;SDS011;38621;52.830;6.914;2023-04-25T03:43:21;7.25;;;2.65;;
52724;SDS011;38621;52.830;6.914;2023-04-25T03:45:46;12.90;;;3.95;;
52724;SDS011;38621;52.830;6.914;2023-04-25T03:48:12;9.88;;;2.83;;
52724;SDS011;38621;52.830;6.914;2023-04-25T03:50:38;7.18;;;2.47;;
52724;SDS011;38621;52.830;6.914;2023-04-25T03:53:04;10.23;;;2.65;;
52724;SDS011;38621;52.830;6.914;2023-04-25T03:55:29;12.00;;;3.45;;
52724;SDS011;38621;52.830;6.914;2023-04-25T03:57:56;7.90;;;2.22;;
52724;SDS011;38621;52.830;6.914;2023-04-25T04:00:23;10.95;;;3.25;;
52724;SDS011;38621;52.830;6.914;2023-04-25T04:02:49;9.57;;;1.85;;
52724;SDS011;38621;52.830;6.914;2023-04-25T04:05:14;7.63;;;2.17;;
52724;SDS011;38621;52.830;6.914;2023-04-25T04:07:40;9.50;;;2.00;;
52724;SDS011;38621;52.830;6.914;2023-04-25T04:10:07;8.65;;;2.03;;
52724;SDS011;38621;52.830;6.914;2023-04-25T04:12:34;8.20;;;2.30;;
52724;SDS011;38621;52.830;6.914;2023-04-25T04:15:00;7.32;;;2.08;;
52724;SDS011;38621;52.830;6.914;2023-04-25T04:17:27;10.63;;;3.03;;
52724;SDS011;38621;52.830;6.914;2023-04-25T04:19:52;8.13;;;1.70;;
52724;SDS011;38621;52.830;6.914;2023-04-25T04:22:18;6.40;;;2.10;;
52724;SDS011;38621;52.830;6.914;2023-04-25T04:24:44;8.65;;;2.53;;
52724;SDS011;38621;52.830;6.914;2023-04-25T04:27:11;8.30;;;2.25;;
52724;SDS011;38621;52.830;6.914;2023-04-25T04:29:38;12.52;;;2.83;;
52724;SDS011;38621;52.830;6.914;2023-04-25T04:32:03;6.13;;;1.90;;
52724;SDS011;38621;52.830;6.914;2023-04-25T04:34:29;7.10;;;2.40;;
52724;SDS011;38621;52.830;6.914;2023-04-25T04:36:56;7.97;;;1.77;;
52724;SDS011;38621;52.830;6.914;2023-04-25T04:39:22;6.88;;;1.80;;
52724;SDS011;38621;52.830;6.914;2023-04-25T04:41:48;6.95;;;1.73;;
52724;SDS011;38621;52.830;6.914;2023-04-25T04:44:14;6.55;;;1.70;;
52724;SDS011;38621;52.830;6.914;2023-04-25T04:46:39;4.82;;;1.98;;
52724;SDS011;38621;52.830;6.914;2023-04-25T04:49:10;4.63;;;1.50;;
52724;SDS011;38621;52.830;6.914;2023-04-25T04:51:37;5.57;;;1.83;;
52724;SDS011;38621;52.830;6.914;2023-04-25T04:54:03;5.50;;;1.20;;
52724;SDS011;38621;52.830;6.914;2023-04-25T04:56:29;3.05;;;1.27;;
52724;SDS011;38621;52.830;6.914;2023-04-25T04:58:56;6.15;;;1.52;;
52724;SDS011;38621;52.830;6.914;2023-04-25T05:01:22;3.30;;;1.20;;
52724;SDS011;38621;52.830;6.914;2023-04-25T05:03:48;4.07;;;1.60;;
52724;SDS011;38621;52.830;6.914;2023-04-25T05:06:13;5.97;;;1.38;;
52724;SDS011;38621;52.830;6.914;2023-04-25T05:08:39;4.72;;;1.55;;
52724;SDS011;38621;52.830;6.914;2023-04-25T05:11:05;4.47;;;1.13;;
52724;SDS011;38621;52.830;6.914;2023-04-25T05:13:31;4.40;;;1.35;;
52724;SDS011;38621;52.830;6.914;2023-04-25T05:15:56;3.42;;;1.35;;
52724;SDS011;38621;52.830;6.914;2023-04-25T05:18:22;7.85;;;1.48;;
52724;SDS011;38621;52.830;6.914;2023-04-25T05:20:48;4.47;;;1.33;;
52724;SDS011;38621;52.830;6.914;2023-04-25T05:23:13;5.35;;;1.45;;
52724;SDS011;38621;52.830;6.914;2023-04-25T05:25:39;4.00;;;2.15;;
52724;SDS011;38621;52.830;6.914;2023-04-25T05:28:05;6.85;;;1.50;;
52724;SDS011;38621;52.830;6.914;2023-04-25T05:30:31;4.35;;;1.42;;
52724;SDS011;38621;52.830;6.914;2023-04-25T05:32:56;4.40;;;1.83;;
52724;SDS011;38621;52.830;6.914;2023-04-25T05:35:22;3.38;;;1.42;;
52724;SDS011;38621;52.830;6.914;2023-04-25T05:37:47;4.20;;;1.50;;
52724;SDS011;38621;52.830;6.914;2023-04-25T05:40:13;5.57;;;1.38;;
52724;SDS011;38621;52.830;6.914;2023-04-25T05:42:39;6.70;;;1.30;;
52724;SDS011;38621;52.830;6.914;2023-04-25T05:45:05;4.93;;;1.50;;
52724;SDS011;38621;52.830;6.914;2023-04-25T05:47:31;6.25;;;1.38;;
52724;SDS011;38621;52.830;6.914;2023-04-25T05:49:56;6.47;;;2.05;;
52724;SDS011;38621;52.830;6.914;2023-04-25T05:52:22;5.15;;;1.52;;
52724;SDS011;38621;52.830;6.914;2023-04-25T05:54:48;4.70;;;1.50;;
52724;SDS011;38621;52.830;6.914;2023-04-25T05:57:21;6.72;;;1.83;;
52724;SDS011;38621;52.830;6.914;2023-04-25T05:59:50;5.13;;;1.40;;
52724;SDS011;38621;52.830;6.914;2023-04-25T06:02:17;7.80;;;1.65;;
52724;SDS011;38621;52.830;6.914;2023-04-25T06:04:43;4.78;;;1.40;;
52724;SDS011;38621;52.830;6.914;2023-04-25T06:07:09;5.10;;;1.35;;
52724;SDS011;38621;52.830;6.914;2023-04-25T06:09:35;4.03;;;1.58;;
52724;SDS011;38621;52.830;6.914;2023-04-25T06:12:00;7.07;;;1.63;;
52724;SDS011;38621;52.830;6.914;2023-04-25T06:14:26;6.65;;;2.05;;
52724;SDS011;38621;52.830;6.914;2023-04-25T06:16:52;4.88;;;1.15;;
52724;SDS011;38621;52.830;6.914;2023-04-25T06:19:18;6.85;;;1.65;;
52724;SDS011;38621;52.830;6.914;2023-04-25T06:21:44;8.07;;;2.53;;
52724;SDS011;38621;52.830;6.914;2023-04-25T06:24:09;4.68;;;1.50;;
52724;SDS011;38621;52.830;6.914;2023-04-25T06:26:35;4.15;;;1.40;;
52724;SDS011;38621;52.830;6.914;2023-04-25T06:29:01;5.22;;;1.63;;
52724;SDS011;38621;52.830;6.914;2023-04-25T06:31:27;4.38;;;1.30;;
52724;SDS011;38621;52.830;6.914;2023-04-25T06:33:54;4.35;;;1.33;;
52724;SDS011;38621;52.830;6.914;2023-04-25T06:36:20;6.32;;;1.45;;
52724;SDS011;38621;52.830;6.914;2023-04-25T06:38:50;3.58;;;1.40;;
52724;SDS011;38621;52.830;6.914;2023-04-25T06:41:17;5.68;;;2.45;;
52724;SDS011;38621;52.830;6.914;2023-04-25T06:43:43;6.53;;;1.42;;
52724;SDS011;38621;52.830;6.914;2023-04-25T06:46:09;5.93;;;1.60;;
52724;SDS011;38621;52.830;6.914;2023-04-25T06:48:35;5.80;;;1.60;;
52724;SDS011;38621;52.830;6.914;2023-04-25T06:51:01;8.15;;;2.03;;
52724;SDS011;38621;52.830;6.914;2023-04-25T06:53:27;4.15;;;1.45;;
52724;SDS011;38621;52.830;6.914;2023-04-25T06:55:53;5.68;;;1.40;;
52724;SDS011;38621;52.830;6.914;2023-04-25T06:58:19;4.32;;;1.30;;
52724;SDS011;38621;52.830;6.914;2023-04-25T07:00:44;5.13;;;1.50;;
52724;SDS011;38621;52.830;6.914;2023-04-25T07:03:10;4.43;;;1.50;;
52724;SDS011;38621;52.830;6.914;2023-04-25T07:05:36;7.07;;;1.65;;
52724;SDS011;38621;52.830;6.914;2023-04-25T07:08:01;6.43;;;1.30;;
52724;SDS011;38621;52.830;6.914;2023-04-25T07:10:28;5.28;;;1.73;;
52724;SDS011;38621;52.830;6.914;2023-04-25T07:12:53;7.50;;;1.70;;
52724;SDS011;38621;52.830;6.914;2023-04-25T07:15:19;4.78;;;1.63;;
52724;SDS011;38621;52.830;6.914;2023-04-25T07:17:45;4.75;;;1.17;;
52724;SDS011;38621;52.830;6.914;2023-04-25T07:20:11;5.88;;;2.33;;
52724;SDS011;38621;52.830;6.914;2023-04-25T07:22:37;3.88;;;1.45;;
52724;SDS011;38621;52.830;6.914;2023-04-25T07:25:03;8.55;;;1.35;;
52724;SDS011;38621;52.830;6.914;2023-04-25T07:27:29;6.18;;;2.30;;
52724;SDS011;38621;52.830;6.914;2023-04-25T07:29:55;3.50;;;1.38;;
52724;SDS011;38621;52.830;6.914;2023-04-25T07:32:21;4.75;;;1.40;;
52724;SDS011;38621;52.830;6.914;2023-04-25T07:34:47;3.90;;;1.02;;
52724;SDS011;38621;52.830;6.914;2023-04-25T07:37:13;8.15;;;1.67;;
52724;SDS011;38621;52.830;6.914;2023-04-25T07:39:39;3.38;;;1.10;;
52724;SDS011;38621;52.830;6.914;2023-04-25T07:42:05;2.67;;;0.90;;
52724;SDS011;38621;52.830;6.914;2023-04-25T07:44:33;6.15;;;1.20;;
52724;SDS011;38621;52.830;6.914;2023-04-25T07:47:06;6.03;;;1.70;;
52724;SDS011;38621;52.830;6.914;2023-04-25T07:49:33;2.15;;;0.98;;
52724;SDS011;38621;52.830;6.914;2023-04-25T07:52:02;4.35;;;1.20;;
52724;SDS011;38621;52.830;6.914;2023-04-25T07:54:29;2.78;;;1.10;;
52724;SDS011;38621;52.830;6.914;2023-04-25T07:56:55;3.67;;;1.45;;
52724;SDS011;38621;52.830;6.914;2023-04-25T07:59:21;2.85;;;1.08;;
52724;SDS011;38621;52.830;6.914;2023-04-25T08:01:46;4.00;;;1.40;;
52724;SDS011;38621;52.830;6.914;2023-04-25T08:04:12;4.40;;;1.00;;
52724;SDS011;38621;52.830;6.914;2023-04-25T08:06:38;5.05;;;1.10;;
52724;SDS011;38621;52.830;6.914;2023-04-25T08:09:05;3.13;;;1.08;;
52724;SDS011;38621;52.830;6.914;2023-04-25T08:11:31;5.40;;;1.20;;
52724;SDS011;38621;52.830;6.914;2023-04-25T08:13:57;5.35;;;1.02;;
52724;SDS011;38621;52.830;6.914;2023-04-25T08:16:22;4.38;;;1.35;;
52724;SDS011;38621;52.830;6.914;2023-04-25T08:18:49;5.47;;;1.13;;
52724;SDS011;38621;52.830;6.914;2023-04-25T08:21:15;7.95;;;1.10;;
52724;SDS011;38621;52.830;6.914;2023-04-25T08:23:42;2.92;;;1.10;;
52724;SDS011;38621;52.830;6.914;2023-04-25T08:26:08;3.10;;;1.10;;
52724;SDS011;38621;52.830;6.914;2023-04-25T08:28:33;3.53;;;1.08;;
52724;SDS011;38621;52.830;6.914;2023-04-25T08:30:59;3.45;;;0.98;;
52724;SDS011;38621;52.830;6.914;2023-04-25T08:33:25;2.35;;;0.90;;
52724;SDS011;38621;52.830;6.914;2023-04-25T08:35:51;4.05;;;1.27;;
52724;SDS011;38621;52.830;6.914;2023-04-25T08:38:17;3.72;;;0.85;;
52724;SDS011;38621;52.830;6.914;2023-04-25T08:40:43;3.00;;;1.00;;
52724;SDS011;38621;52.830;6.914;2023-04-25T08:43:09;3.08;;;1.10;;
52724;SDS011;38621;52.830;6.914;2023-04-25T08:45:40;5.15;;;1.17;;
52724;SDS011;38621;52.830;6.914;2023-04-25T08:48:10;4.22;;;1.02;;
52724;SDS011;38621;52.830;6.914;2023-04-25T08:50:54;3.75;;;1.10;;
52724;SDS011;38621;52.830;6.914;2023-04-25T08:53:28;3.92;;;0.90;;
52724;SDS011;38621;52.830;6.914;2023-04-25T08:55:56;2.35;;;1.00;;
52724;SDS011;38621;52.830;6.914;2023-04-25T08:58:23;4.32;;;1.13;;
52724;SDS011;38621;52.830;6.914;2023-04-25T09:00:49;2.75;;;0.93;;
52724;SDS011;38621;52.830;6.914;2023-04-25T09:03:16;4.18;;;1.42;;
52724;SDS011;38621;52.830;6.914;2023-04-25T09:05:43;3.72;;;1.10;;
52724;SDS011;38621;52.830;6.914;2023-04-25T09:08:08;2.90;;;1.25;;
52724;SDS011;38621;52.830;6.914;2023-04-25T09:10:35;6.18;;;1.30;;
52724;SDS011;38621;52.830;6.914;2023-04-25T09:13:08;4.82;;;1.17;;
52724;SDS011;38621;52.830;6.914;2023-04-25T09:20:51;3.63;;;1.08;;
52724;SDS011;38621;52.830;6.914;2023-04-25T09:23:30;3.63;;;1.00;;
52724;SDS011;38621;52.830;6.914;2023-04-25T09:26:03;4.18;;;0.95;;
52724;SDS011;38621;52.830;6.914;2023-04-25T09:28:31;3.97;;;1.00;;
52724;SDS011;38621;52.830;6.914;2023-04-25T09:30:57;4.35;;;0.90;;
52724;SDS011;38621;52.830;6.914;2023-04-25T09:33:27;2.90;;;0.82;;
52724;SDS011;38621;52.830;6.914;2023-04-25T09:35:56;3.88;;;0.98;;
52724;SDS011;38621;52.830;6.914;2023-04-25T09:38:30;2.55;;;0.80;;
52724;SDS011;38621;52.830;6.914;2023-04-25T09:40:57;2.63;;;0.75;;
52724;SDS011;38621;52.830;6.914;2023-04-25T09:43:24;3.65;;;0.90;;
52724;SDS011;38621;52.830;6.914;2023-04-25T09:45:51;3.30;;;0.98;;
52724;SDS011;38621;52.830;6.914;2023-04-25T09:48:22;1.73;;;0.60;;
52724;SDS011;38621;52.830;6.914;2023-04-25T09:53:30;3.80;;;0.70;;
52724;SDS011;38621;52.830;6.914;2023-04-25T09:55:57;3.67;;;0.90;;
52724;SDS011;38621;52.830;6.914;2023-04-25T09:58:25;1.88;;;0.88;;
52724;SDS011;38621;52.830;6.914;2023-04-25T10:00:53;3.15;;;0.85;;
52724;SDS011;38621;52.830;6.914;2023-04-25T10:03:23;2.78;;;1.02;;
52724;SDS011;38621;52.830;6.914;2023-04-25T10:05:50;2.72;;;0.70;;
52724;SDS011;38621;52.830;6.914;2023-04-25T10:08:17;3.03;;;0.80;;
52724;SDS011;38621;52.830;6.914;2023-04-25T10:10:45;2.63;;;0.80;;
52724;SDS011;38621;52.830;6.914;2023-04-25T10:13:13;2.20;;;0.70;;
52724;SDS011;38621;52.830;6.914;2023-04-25T10:15:40;3.20;;;1.30;;
52724;SDS011;38621;52.830;6.914;2023-04-25T10:18:06;2.35;;;0.70;;
52724;SDS011;38621;52.830;6.914;2023-04-25T10:20:32;1.98;;;0.80;;
52724;SDS011;38621;52.830;6.914;2023-04-25T10:23:01;5.00;;;1.13;;
52724;SDS011;38621;52.830;6.914;2023-04-25T10:25:33;4.88;;;1.35;;
52724;SDS011;38621;52.830;6.914;2023-04-25T10:28:00;4.00;;;1.00;;
52724;SDS011;38621;52.830;6.914;2023-04-25T10:30:27;3.92;;;0.88;;
52724;SDS011;38621;52.830;6.914;2023-04-25T10:32:54;2.90;;;1.20;;
52724;SDS011;38621;52.830;6.914;2023-04-25T10:35:24;2.90;;;1.00;;
52724;SDS011;38621;52.830;6.914;2023-04-25T10:37:58;1.42;;;0.80;;
52724;SDS011;38621;52.830;6.914;2023-04-25T10:40:31;2.97;;;1.10;;
52724;SDS011;38621;52.830;6.914;2023-04-25T10:46:03;3.53;;;0.80;;
52724;SDS011;38621;52.830;6.914;2023-04-25T10:48:46;1.98;;;0.85;;
52724;SDS011;38621;52.830;6.914;2023-04-25T10:53:46;4.18;;;1.00;;
52724;SDS011;38621;52.830;6.914;2023-04-25T10:56:21;2.60;;;1.07;;
52724;SDS011;38621;52.830;6.914;2023-04-25T10:58:49;3.63;;;0.95;;
52724;SDS011;38621;52.830;6.914;2023-04-25T11:01:19;3.55;;;1.13;;
52724;SDS011;38621;52.830;6.914;2023-04-25T11:03:45;4.20;;;0.90;;
52724;SDS011;38621;52.830;6.914;2023-04-25T11:08:53;3.38;;;1.00;;
52724;SDS011;38621;52.830;6.914;2023-04-25T11:11:19;3.13;;;1.08;;
52724;SDS011;38621;52.830;6.914;2023-04-25T11:13:48;5.78;;;1.73;;
52724;SDS011;38621;52.830;6.914;2023-04-25T11:16:15;5.10;;;1.10;;
52724;SDS011;38621;52.830;6.914;2023-04-25T11:18:42;7.57;;;1.33;;
52724;SDS011;38621;52.830;6.914;2023-04-25T11:21:08;5.47;;;1.02;;
52724;SDS011;38621;52.830;6.914;2023-04-25T11:23:35;5.53;;;1.23;;
52724;SDS011;38621;52.830;6.914;2023-04-25T11:26:02;4.63;;;1.33;;
52724;SDS011;38621;52.830;6.914;2023-04-25T11:28:28;3.70;;;1.20;;
52724;SDS011;38621;52.830;6.914;2023-04-25T11:30:54;4.35;;;1.00;;
52724;SDS011;38621;52.830;6.914;2023-04-25T11:33:24;4.07;;;1.30;;
52724;SDS011;38621;52.830;6.914;2023-04-25T11:35:53;4.70;;;2.35;;
52724;SDS011;38621;52.830;6.914;2023-04-25T11:38:20;5.18;;;1.60;;
52724;SDS011;38621;52.830;6.914;2023-04-25T11:40:52;5.60;;;1.23;;
52724;SDS011;38621;52.830;6.914;2023-04-25T11:43:21;7.03;;;1.25;;
52724;SDS011;38621;52.830;6.914;2023-04-25T11:45:48;4.05;;;1.02;;
52724;SDS011;38621;52.830;6.914;2023-04-25T11:48:15;1.63;;;0.73;;
52724;SDS011;38621;52.830;6.914;2023-04-25T11:50:41;3.25;;;0.60;;
52724;SDS011;38621;52.830;6.914;2023-04-25T11:53:07;1.52;;;0.60;;
52724;SDS011;38621;52.830;6.914;2023-04-25T11:55:33;2.72;;;0.98;;
52724;SDS011;38621;52.830;6.914;2023-04-25T11:58:00;3.03;;;0.88;;
52724;SDS011;38621;52.830;6.914;2023-04-25T12:00:27;2.33;;;1.00;;
52724;SDS011;38621;52.830;6.914;2023-04-25T12:02:53;3.03;;;1.13;;
52724;SDS011;38621;52.830;6.914;2023-04-25T12:05:20;3.33;;;1.02;;
52724;SDS011;38621;52.830;6.914;2023-04-25T12:07:49;3.78;;;1.15;;
52724;SDS011;38621;52.830;6.914;2023-04-25T12:10:16;1.45;;;0.80;;
52724;SDS011;38621;52.830;6.914;2023-04-25T12:12:43;3.72;;;1.08;;
52724;SDS011;38621;52.830;6.914;2023-04-25T12:17:39;1.50;;;0.70;;
52724;SDS011;38621;52.830;6.914;2023-04-25T12:20:09;2.55;;;0.90;;
52724;SDS011;38621;52.830;6.914;2023-04-25T12:22:37;3.40;;;2.00;;
52724;SDS011;38621;52.830;6.914;2023-04-25T12:25:05;3.22;;;1.20;;
52724;SDS011;38621;52.830;6.914;2023-04-25T12:27:32;3.00;;;1.15;;
52724;SDS011;38621;52.830;6.914;2023-04-25T12:29:59;2.90;;;1.13;;
52724;SDS011;38621;52.830;6.914;2023-04-25T12:32:25;3.72;;;0.80;;
52724;SDS011;38621;52.830;6.914;2023-04-25T12:34:51;3.33;;;1.02;;
52724;SDS011;38621;52.830;6.914;2023-04-25T12:37:17;3.58;;;1.00;;
52724;SDS011;38621;52.830;6.914;2023-04-25T12:39:43;3.47;;;1.38;;
52724;SDS011;38621;52.830;6.914;2023-04-25T12:42:09;3.78;;;0.95;;
52724;SDS011;38621;52.830;6.914;2023-04-25T12:44:37;3.22;;;1.20;;
52724;SDS011;38621;52.830;6.914;2023-04-25T12:47:03;4.30;;;1.02;;
52724;SDS011;38621;52.830;6.914;2023-04-25T12:49:29;4.65;;;1.45;;
52724;SDS011;38621;52.830;6.914;2023-04-25T12:51:54;3.85;;;1.10;;
52724;SDS011;38621;52.830;6.914;2023-04-25T12:54:20;4.45;;;1.13;;
52724;SDS011;38621;52.830;6.914;2023-04-25T12:56:46;4.25;;;1.20;;
52724;SDS011;38621;52.830;6.914;2023-04-25T12:59:12;3.70;;;1.30;;
52724;SDS011;38621;52.830;6.914;2023-04-25T13:01:38;4.68;;;1.55;;
52724;SDS011;38621;52.830;6.914;2023-04-25T13:04:03;2.65;;;1.00;;
52724;SDS011;38621;52.830;6.914;2023-04-25T13:06:29;3.00;;;1.05;;
52724;SDS011;38621;52.830;6.914;2023-04-25T13:08:55;3.90;;;1.30;;
52724;SDS011;38621;52.830;6.914;2023-04-25T13:11:21;3.22;;;1.27;;
52724;SDS011;38621;52.830;6.914;2023-04-25T13:13:47;2.90;;;1.23;;
52724;SDS011;38621;52.830;6.914;2023-04-25T13:16:12;4.15;;;1.10;;
52724;SDS011;38621;52.830;6.914;2023-04-25T13:18:39;2.10;;;0.85;;
52724;SDS011;38621;52.830;6.914;2023-04-25T13:21:05;2.42;;;0.80;;
52724;SDS011;38621;52.830;6.914;2023-04-25T13:23:31;3.22;;;0.80;;
52724;SDS011;38621;52.830;6.914;2023-04-25T13:25:56;3.33;;;0.98;;
52724;SDS011;38621;52.830;6.914;2023-04-25T13:28:23;2.15;;;0.90;;
52724;SDS011;38621;52.830;6.914;2023-04-25T13:30:50;2.28;;;0.90;;
52724;SDS011;38621;52.830;6.914;2023-04-25T13:33:16;2.53;;;1.15;;
52724;SDS011;38621;52.830;6.914;2023-04-25T13:35:42;3.38;;;0.93;;
52724;SDS011;38621;52.830;6.914;2023-04-25T13:38:12;3.85;;;1.05;;
52724;SDS011;38621;52.830;6.914;2023-04-25T13:40:38;2.63;;;1.00;;
52724;SDS011;38621;52.830;6.914;2023-04-25T13:43:04;3.65;;;0.98;;
52724;SDS011;38621;52.830;6.914;2023-04-25T13:45:31;3.97;;;0.90;;
52724;SDS011;38621;52.830;6.914;2023-04-25T13:47:57;3.03;;;0.80;;
52724;SDS011;38621;52.830;6.914;2023-04-25T13:50:23;2.45;;;1.10;;
52724;SDS011;38621;52.830;6.914;2023-04-25T13:52:48;5.60;;;1.30;;
52724;SDS011;38621;52.830;6.914;2023-04-25T13:55:14;4.38;;;1.15;;
52724;SDS011;38621;52.830;6.914;2023-04-25T13:57:40;2.60;;;0.77;;
52724;SDS011;38621;52.830;6.914;2023-04-25T14:00:05;3.55;;;1.10;;
52724;SDS011;38621;52.830;6.914;2023-04-25T14:02:37;3.30;;;1.10;;
52724;SDS011;38621;52.830;6.914;2023-04-25T14:05:03;3.88;;;1.50;;
52724;SDS011;38621;52.830;6.914;2023-04-25T14:07:30;3.63;;;1.27;;
52724;SDS011;38621;52.830;6.914;2023-04-25T14:10:00;5.63;;;1.05;;
52724;SDS011;38621;52.830;6.914;2023-04-25T14:12:25;2.28;;;0.90;;
52724;SDS011;38621;52.830;6.914;2023-04-25T14:14:51;3.20;;;0.93;;
52724;SDS011;38621;52.830;6.914;2023-04-25T14:17:18;2.35;;;1.00;;
52724;SDS011;38621;52.830;6.914;2023-04-25T14:19:44;2.63;;;1.00;;
52724;SDS011;38621;52.830;6.914;2023-04-25T14:22:12;3.50;;;0.82;;
52724;SDS011;38621;52.830;6.914;2023-04-25T14:24:39;1.92;;;0.80;;
52724;SDS011;38621;52.830;6.914;2023-04-25T14:27:05;2.67;;;0.90;;
52724;SDS011;38621;52.830;6.914;2023-04-25T14:29:31;5.07;;;0.80;;
52724;SDS011;38621;52.830;6.914;2023-04-25T14:31:56;3.00;;;0.93;;
52724;SDS011;38621;52.830;6.914;2023-04-25T14:34:24;2.78;;;0.90;;
52724;SDS011;38621;52.830;6.914;2023-04-25T14:36:50;2.30;;;1.00;;
52724;SDS011;38621;52.830;6.914;2023-04-25T14:39:17;4.72;;;1.25;;
52724;SDS011;38621;52.830;6.914;2023-04-25T14:41:43;3.65;;;1.20;;
52724;SDS011;38621;52.830;6.914;2023-04-25T14:44:09;4.85;;;1.55;;
52724;SDS011;38621;52.830;6.914;2023-04-25T14:46:35;3.70;;;1.30;;
52724;SDS011;38621;52.830;6.914;2023-04-25T14:49:02;5.95;;;1.40;;
52724;SDS011;38621;52.830;6.914;2023-04-25T14:51:28;3.63;;;1.05;;
52724;SDS011;38621;52.830;6.914;2023-04-25T14:53:54;3.50;;;1.02;;
52724;SDS011;38621;52.830;6.914;2023-04-25T14:56:20;3.60;;;1.10;;
52724;SDS011;38621;52.830;6.914;2023-04-25T14:58:46;3.05;;;1.00;;
52724;SDS011;38621;52.830;6.914;2023-04-25T15:01:12;2.88;;;1.20;;